Time;durP1;ratioP1;P1;durP2;ratioP2;P2;SDS_P1;SDS_P2;PMS_P1;PMS_P2;Temp;Humidity;BMP_temperature;BMP_pressure;BME280_temperature;BME280_humidity;BME280_pressure;Samples;Min_cycle;Max_cycle;Signal;HPM_P1;HPM_P2
2023/09/13 00:01:46;;;;;;;0.10;0.10;;;;;;;;;;5137890;27;20081;-42
2023/09/13 00:04:12;;;;;;;0.10;0.10;;;;;;;;;;5137038;27;20042;-42
2023/09/13 00:06:39;;;;;;;0.10;0.10;;;;;;;;;;5136341;27;20039;-43
2023/09/13 00:09:06;;;;;;;0.10;0.10;;;;;;;;;;5139593;27;20519;-42
2023/09/13 00:11:32;;;;;;;0.10;0.10;;;;;;;;;;5140381;27;20076;-44
2023/09/13 00:13:57;;;;;;;0.10;0.10;;;;;;;;;;5137655;27;20527;-43
2023/09/13 00:16:24;;;;;;;0.10;0.10;;;;;;;;;;5119803;28;20094;-44
2023/09/13 00:18:51;;;;;;;0.10;0.10;;;;;;;;;;5119679;27;20047;-42
2023/09/13 00:21:17;;;;;;;0.20;0.20;;;;;;;;;;5119097;28;20245;-43
2023/09/13 00:23:43;;;;;;;0.10;0.10;;;;;;;;;;5139245;27;20475;-43
2023/09/13 00:26:09;;;;;;;0.10;0.10;;;;;;;;;;5150106;27;20047;-42
2023/09/13 00:28:35;;;;;;;0.17;0.10;;;;;;;;;;5139917;27;20058;-43
2023/09/13 00:31:00;;;;;;;0.10;0.10;;;;;;;;;;5140109;27;20264;-42
2023/09/13 00:33:26;;;;;;;0.10;0.10;;;;;;;;;;5139358;27;20057;-42
2023/09/13 00:35:56;;;;;;;0.10;0.10;;;;;;;;;;5139966;27;20058;-42
2023/09/13 00:38:21;;;;;;;0.10;0.10;;;;;;;;;;5147185;27;20082;-43
2023/09/13 00:40:47;;;;;;;0.10;0.10;;;;;;;;;;5157891;27;20145;-43
2023/09/13 00:43:13;;;;;;;0.10;0.10;;;;;;;;;;5160590;27;20054;-42
2023/09/13 00:45:38;;;;;;;0.20;0.20;;;;;;;;;;5159770;27;20038;-42
2023/09/13 00:48:04;;;;;;;0.10;0.10;;;;;;;;;;5147234;27;20055;-43
2023/09/13 00:50:30;;;;;;;0.10;0.10;;;;;;;;;;5119974;28;20293;-43
2023/09/13 00:53:16;;;;;;;0.10;0.10;;;;;;;;;;5103829;28;20572;-42
2023/09/13 00:55:42;;;;;;;0.10;0.10;;;;;;;;;;5119128;28;20080;-42
2023/09/13 00:58:07;;;;;;;0.10;0.10;;;;;;;;;;5119934;27;20416;-42
2023/09/13 01:00:34;;;;;;;0.10;0.10;;;;;;;;;;5146923;27;20153;-43
2023/09/13 01:03:00;;;;;;;0.10;0.10;;;;;;;;;;5139136;27;20078;-42
2023/09/13 01:05:26;;;;;;;0.10;0.10;;;;;;;;;;5140135;27;20143;-43
2023/09/13 01:07:51;;;;;;;0.10;0.10;;;;;;;;;;5138717;27;20068;-42
2023/09/13 01:10:18;;;;;;;0.20;0.20;;;;;;;;;;5139398;27;20065;-42
2023/09/13 01:12:44;;;;;;;0.10;0.10;;;;;;;;;;5139083;27;20066;-42
2023/09/13 01:15:09;;;;;;;0.10;0.10;;;;;;;;;;5127127;27;20055;-42
2023/09/13 01:17:46;;;;;;;0.10;0.10;;;;;;;;;;5118661;27;20074;-43
2023/09/13 01:20:13;;;;;;;0.10;0.10;;;;;;;;;;5119255;27;20058;-43
2023/09/13 01:22:52;;;;;;;0.10;0.10;;;;;;;;;;5118296;28;20131;-42
2023/09/13 01:25:33;;;;;;;0.10;0.10;;;;;;;;;;5134653;27;20043;-42
2023/09/13 01:28:10;;;;;;;0.10;0.10;;;;;;;;;;5133427;27;20054;-44
2023/09/13 01:30:37;;;;;;;0.10;0.10;;;;;;;;;;5118798;28;20051;-44
2023/09/13 01:33:02;;;;;;;0.10;0.10;;;;;;;;;;5118629;28;20054;-42
2023/09/13 01:35:28;;;;;;;0.10;0.10;;;;;;;;;;5118408;28;20043;-44
2023/09/13 01:37:54;;;;;;;0.10;0.10;;;;;;;;;;5121585;27;20411;-42
2023/09/13 01:40:20;;;;;;;0.10;0.10;;;;;;;;;;5149913;27;20081;-43
2023/09/13 01:42:47;;;;;;;0.10;0.10;;;;;;;;;;5158691;27;20270;-43
2023/09/13 01:45:13;;;;;;;0.10;0.10;;;;;;;;;;5160128;27;20054;-42
2023/09/13 01:47:40;;;;;;;0.10;0.10;;;;;;;;;;5154225;27;20047;-42
2023/09/13 01:50:07;;;;;;;0.10;0.10;;;;;;;;;;5118827;27;20058;-43
2023/09/13 01:52:32;;;;;;;0.20;0.20;;;;;;;;;;5118364;28;20055;-43
2023/09/13 01:54:58;;;;;;;0.10;0.10;;;;;;;;;;5118534;28;20047;-42
2023/09/13 01:57:24;;;;;;;0.10;0.10;;;;;;;;;;5118329;27;20051;-43
2023/09/13 01:59:49;;;;;;;0.20;0.20;;;;;;;;;;5133265;27;20050;-42
2023/09/13 02:02:15;;;;;;;0.20;0.20;;;;;;;;;;5147529;27;20050;-44
2023/09/13 02:04:40;;;;;;;0.10;0.10;;;;;;;;;;5138809;27;20442;-44
2023/09/13 02:07:06;;;;;;;0.10;0.10;;;;;;;;;;5138723;27;20043;-42
2023/09/13 02:09:32;;;;;;;0.10;0.10;;;;;;;;;;5119714;27;20039;-42
2023/09/13 02:11:57;;;;;;;0.20;0.20;;;;;;;;;;5118471;28;20487;-43
2023/09/13 02:14:23;;;;;;;0.10;0.10;;;;;;;;;;5117472;28;20054;-43
2023/09/13 02:16:48;;;;;;;0.10;0.10;;;;;;;;;;5118004;28;20035;-43
2023/09/13 02:19:14;;;;;;;0.10;0.10;;;;;;;;;;5117904;27;20539;-42
2023/09/13 02:21:40;;;;;;;0.10;0.10;;;;;;;;;;5117611;28;20130;-43
2023/09/13 02:24:06;;;;;;;0.10;0.10;;;;;;;;;;5117773;27;20885;-44
2023/09/13 02:26:31;;;;;;;0.20;0.20;;;;;;;;;;5125249;27;20264;-41
2023/09/13 02:28:57;;;;;;;0.10;0.10;;;;;;;;;;5152279;27;20046;-42
2023/09/13 02:31:23;;;;;;;0.10;0.10;;;;;;;;;;5158357;27;20042;-42
2023/09/13 02:33:49;;;;;;;0.10;0.10;;;;;;;;;;5158806;27;20046;-43
2023/09/13 02:36:15;;;;;;;0.10;0.10;;;;;;;;;;5158335;27;20072;-42
2023/09/13 02:38:40;;;;;;;0.17;0.17;;;;;;;;;;5134776;27;20253;-42
2023/09/13 02:41:06;;;;;;;0.10;0.10;;;;;;;;;;5131697;27;20053;-42
2023/09/13 02:43:31;;;;;;;0.10;0.10;;;;;;;;;;5139011;27;20038;-42
2023/09/13 02:45:57;;;;;;;0.10;0.10;;;;;;;;;;5137970;27;20042;-43
2023/09/13 02:48:22;;;;;;;0.10;0.10;;;;;;;;;;5128523;27;20047;-42
2023/09/13 02:50:48;;;;;;;0.10;0.10;;;;;;;;;;5117372;28;20346;-42
2023/09/13 02:53:13;;;;;;;0.10;0.10;;;;;;;;;;5116682;28;20205;-42
2023/09/13 02:55:39;;;;;;;0.10;0.10;;;;;;;;;;5116678;28;20043;-43
2023/09/13 02:58:05;;;;;;;0.10;0.10;;;;;;;;;;5116259;27;20542;-42
2023/09/13 03:00:31;;;;;;;0.10;0.10;;;;;;;;;;5116296;27;20340;-41
2023/09/13 03:02:58;;;;;;;0.10;0.10;;;;;;;;;;5129238;27;20130;-44
2023/09/13 03:05:23;;;;;;;0.20;0.20;;;;;;;;;;5137066;27;20091;-41
2023/09/13 03:07:49;;;;;;;0.10;0.10;;;;;;;;;;5131807;27;20046;-42
2023/09/13 03:10:14;;;;;;;0.10;0.10;;;;;;;;;;5116335;28;20054;-44
2023/09/13 03:12:40;;;;;;;0.20;0.20;;;;;;;;;;5116640;28;20043;-45
2023/09/13 03:15:06;;;;;;;0.10;0.10;;;;;;;;;;5116404;28;20054;-43
2023/09/13 03:17:31;;;;;;;0.10;0.10;;;;;;;;;;5116452;27;20039;-42
2023/09/13 03:19:57;;;;;;;0.20;0.20;;;;;;;;;;5117011;28;20527;-44
2023/09/13 03:22:22;;;;;;;0.10;0.10;;;;;;;;;;5116115;28;20058;-44
2023/09/13 03:24:48;;;;;;;0.10;0.10;;;;;;;;;;5116657;28;20043;-42
2023/09/13 03:27:14;;;;;;;0.10;0.10;;;;;;;;;;5116303;28;20062;-42
2023/09/13 03:29:39;;;;;;;0.10;0.10;;;;;;;;;;5146919;27;20113;-44
2023/09/13 03:32:06;;;;;;;0.10;0.10;;;;;;;;;;5157894;27;20419;-41
2023/09/13 03:34:32;;;;;;;0.20;0.20;;;;;;;;;;5158118;27;20094;-43
2023/09/13 03:36:57;;;;;;;0.10;0.10;;;;;;;;;;5157793;27;20050;-42
2023/09/13 03:39:26;;;;;;;0.10;0.10;;;;;;;;;;5121818;27;20406;-42
2023/09/13 03:41:51;;;;;;;0.10;0.10;;;;;;;;;;5122298;27;20262;-41
2023/09/13 03:44:16;;;;;;;0.10;0.10;;;;;;;;;;5147106;27;20273;-42
2023/09/13 03:46:42;;;;;;;0.10;0.10;;;;;;;;;;5162414;27;20733;-42
2023/09/13 03:49:08;;;;;;;0.10;0.10;;;;;;;;;;5130712;27;20835;-44
2023/09/13 03:51:34;;;;;;;0.10;0.10;;;;;;;;;;5120871;28;20447;-43
2023/09/13 03:53:59;;;;;;;0.10;0.10;;;;;;;;;;5121020;28;20055;-43
2023/09/13 03:56:25;;;;;;;0.10;0.10;;;;;;;;;;5120338;28;20053;-42
2023/09/13 03:58:50;;;;;;;0.10;0.10;;;;;;;;;;5133311;27;20052;-42
2023/09/13 04:01:16;;;;;;;0.10;0.10;;;;;;;;;;5141672;27;20042;-43
2023/09/13 04:03:42;;;;;;;0.10;0.10;;;;;;;;;;5140643;27;20045;-44
2023/09/13 04:06:08;;;;;;;0.10;0.10;;;;;;;;;;5157630;27;20136;-42
2023/09/13 04:08:33;;;;;;;0.10;0.10;;;;;;;;;;5139990;27;20130;-42
2023/09/13 04:10:59;;;;;;;0.10;0.10;;;;;;;;;;5120425;28;20047;-45
2023/09/13 04:13:25;;;;;;;0.10;0.10;;;;;;;;;;5120190;28;20490;-42
2023/09/13 04:15:51;;;;;;;0.10;0.10;;;;;;;;;;5119788;28;20080;-42
2023/09/13 04:18:17;;;;;;;0.25;0.17;;;;;;;;;;5119381;27;20803;-43
2023/09/13 04:20:43;;;;;;;0.10;0.10;;;;;;;;;;5119734;28;20454;-42
2023/09/13 04:23:09;;;;;;;0.10;0.10;;;;;;;;;;5118884;28;20046;-43
2023/09/13 04:25:36;;;;;;;0.10;0.10;;;;;;;;;;5119580;28;20452;-43
2023/09/13 04:28:01;;;;;;;0.10;0.10;;;;;;;;;;5123678;27;20260;-43
2023/09/13 04:30:27;;;;;;;0.10;0.10;;;;;;;;;;5133979;27;20054;-44
2023/09/13 04:32:52;;;;;;;0.10;0.10;;;;;;;;;;5136180;27;20049;-42
2023/09/13 04:35:18;;;;;;;0.10;0.10;;;;;;;;;;5119259;27;20051;-41
2023/09/13 04:37:43;;;;;;;0.10;0.10;;;;;;;;;;5118675;27;20100;-44
2023/09/13 04:40:09;;;;;;;0.10;0.10;;;;;;;;;;5119191;28;20082;-42
2023/09/13 04:42:37;;;;;;;0.10;0.10;;;;;;;;;;5118020;27;20047;-42
2023/09/13 04:45:03;;;;;;;0.10;0.10;;;;;;;;;;5138884;27;20050;-42
2023/09/13 04:47:28;;;;;;;0.10;0.10;;;;;;;;;;5152372;27;20073;-42
2023/09/13 04:49:54;;;;;;;0.10;0.10;;;;;;;;;;5119657;28;20421;-43
2023/09/13 04:52:20;;;;;;;0.10;0.10;;;;;;;;;;5121393;27;20247;-42
2023/09/13 04:54:45;;;;;;;0.10;0.10;;;;;;;;;;5131472;27;20319;-43
2023/09/13 04:57:12;;;;;;;0.10;0.10;;;;;;;;;;5129316;27;20446;-42
2023/09/13 04:59:43;;;;;;;0.10;0.10;;;;;;;;;;5127034;27;20636;-54
2023/09/13 05:02:11;;;;;;;0.10;0.10;;;;;;;;;;5126703;27;20046;-48
2023/09/13 05:04:36;;;;;;;;;;;;;;;;;;5121078;27;20049;-43
2023/09/13 05:07:02;;;;;;;0.20;0.20;;;;;;;;;;5135037;27;20314;-43
2023/09/13 05:09:28;;;;;;;0.10;0.10;;;;;;;;;;5121968;27;20051;-42
2023/09/13 05:11:53;;;;;;;0.10;0.10;;;;;;;;;;5120302;27;20047;-42
2023/09/13 05:14:19;;;;;;;0.10;0.10;;;;;;;;;;5122287;27;20054;-45
2023/09/13 05:16:44;;;;;;;0.10;0.10;;;;;;;;;;5130911;27;20047;-43
2023/09/13 05:19:10;;;;;;;0.20;0.20;;;;;;;;;;5117046;27;20166;-43
2023/09/13 05:21:35;;;;;;;0.10;0.10;;;;;;;;;;5122422;27;20203;-42
2023/09/13 05:24:02;;;;;;;0.10;0.10;;;;;;;;;;5126258;27;20058;-42
2023/09/13 05:26:27;;;;;;;0.10;0.10;;;;;;;;;;5132777;27;20057;-42
2023/09/13 05:28:53;;;;;;;0.28;0.28;;;;;;;;;;5116479;27;20042;-45
2023/09/13 05:31:19;;;;;;;0.30;0.10;;;;;;;;;;5131672;27;20039;-43
2023/09/13 05:33:45;;;;;;;0.20;0.20;;;;;;;;;;5140682;27;20050;-43
2023/09/13 05:36:13;;;;;;;0.52;0.20;;;;;;;;;;5118105;27;20054;-43
2023/09/13 05:38:39;;;;;;;0.00;0.00;;;;;;;;;;5117326;27;20054;-43
2023/09/13 05:41:07;;;;;;;0.22;0.22;;;;;;;;;;5119563;27;20043;-48
2023/09/13 05:43:33;;;;;;;0.10;0.10;;;;;;;;;;5119730;27;20051;-44
2023/09/13 05:45:59;;;;;;;0.17;0.17;;;;;;;;;;5123308;27;20049;-43
2023/09/13 05:48:25;;;;;;;0.10;0.10;;;;;;;;;;5127373;27;20051;-43
2023/09/13 05:50:50;;;;;;;0.10;0.10;;;;;;;;;;5121015;27;21513;-43
2023/09/13 05:53:19;;;;;;;0.10;0.10;;;;;;;;;;5116661;27;20081;-44
2023/09/13 05:55:45;;;;;;;0.10;0.10;;;;;;;;;;5109895;27;20046;-43
2023/09/13 05:58:11;;;;;;;0.10;0.10;;;;;;;;;;5107155;27;20077;-42
2023/09/13 06:00:36;;;;;;;0.10;0.10;;;;;;;;;;5102237;27;20527;-43
2023/09/13 06:03:02;;;;;;;0.10;0.10;;;;;;;;;;5107496;27;20082;-43
2023/09/13 06:05:28;;;;;;;0.13;0.13;;;;;;;;;;5110215;27;20061;-43
2023/09/13 06:07:53;;;;;;;0.10;0.10;;;;;;;;;;5114275;27;20049;-42
2023/09/13 06:10:19;;;;;;;0.10;0.10;;;;;;;;;;5109621;27;20047;-43
2023/09/13 06:12:45;;;;;;;0.20;0.20;;;;;;;;;;5111612;27;20421;-43
2023/09/13 06:15:11;;;;;;;0.20;0.20;;;;;;;;;;5114934;27;20435;-42
2023/09/13 06:17:36;;;;;;;0.10;0.10;;;;;;;;;;5114442;27;20080;-43
2023/09/13 06:20:04;;;;;;;0.10;0.10;;;;;;;;;;5114036;27;20150;-42
2023/09/13 06:22:32;;;;;;;0.10;0.10;;;;;;;;;;5119736;27;20054;-42
2023/09/13 06:24:58;;;;;;;0.22;0.20;;;;;;;;;;5096455;27;20035;-45
2023/09/13 06:27:24;;;;;;;0.10;0.10;;;;;;;;;;5112342;27;20061;-41
2023/09/13 06:29:49;;;;;;;0.10;0.10;;;;;;;;;;5099804;27;20515;-42
2023/09/13 06:32:15;;;;;;;0.10;0.10;;;;;;;;;;5122045;27;20476;-42
2023/09/13 06:35:00;;;;;;;0.10;0.10;;;;;;;;;;5113951;27;20543;-44
2023/09/13 06:37:26;;;;;;;0.10;0.10;;;;;;;;;;5121944;27;20043;-44
2023/09/13 06:39:53;;;;;;;0.15;0.15;;;;;;;;;;5117664;27;20047;-44
2023/09/13 06:42:19;;;;;;;0.10;0.10;;;;;;;;;;5118633;27;20101;-44
2023/09/13 06:44:54;;;;;;;0.10;0.10;;;;;;;;;;5115605;27;20039;-42
2023/09/13 06:47:38;;;;;;;0.10;0.10;;;;;;;;;;5114576;27;20065;-42
2023/09/13 06:50:05;;;;;;;0.10;0.10;;;;;;;;;;5116334;27;20503;-43
2023/09/13 06:52:31;;;;;;;0.10;0.10;;;;;;;;;;5116537;27;20526;-42
2023/09/13 06:55:01;;;;;;;0.10;0.10;;;;;;;;;;5113878;27;20479;-42
2023/09/13 06:57:28;;;;;;;0.10;0.10;;;;;;;;;;5114167;27;20058;-41
2023/09/13 06:59:57;;;;;;;0.10;0.10;;;;;;;;;;5115899;27;20039;-42
2023/09/13 07:02:26;;;;;;;0.10;0.10;;;;;;;;;;5107029;27;20385;-42
2023/09/13 07:05:03;;;;;;;0.10;0.10;;;;;;;;;;5101677;27;20143;-44
2023/09/13 07:07:31;;;;;;;0.10;0.10;;;;;;;;;;5099640;27;20051;-43
2023/09/13 07:09:57;;;;;;;0.35;0.10;;;;;;;;;;5109143;27;20127;-42
2023/09/13 07:12:22;;;;;;;0.10;0.10;;;;;;;;;;5102585;27;20100;-43
2023/09/13 07:14:54;;;;;;;0.10;0.10;;;;;;;;;;5116491;27;20576;-47
2023/09/13 07:17:19;;;;;;;0.10;0.10;;;;;;;;;;5122781;27;20137;-43
2023/09/13 07:19:45;;;;;;;0.10;0.10;;;;;;;;;;5116673;27;20138;-42
2023/09/13 07:22:10;;;;;;;0.10;0.10;;;;;;;;;;5114404;27;20047;-43
2023/09/13 07:24:36;;;;;;;0.10;0.10;;;;;;;;;;5127253;27;20047;-43
2023/09/13 07:27:02;;;;;;;0.10;0.10;;;;;;;;;;5120573;27;20107;-42
2023/09/13 07:29:27;;;;;;;0.10;0.10;;;;;;;;;;5121124;27;20215;-44
2023/09/13 07:31:53;;;;;;;0.10;0.10;;;;;;;;;;5122749;27;20325;-43
2023/09/13 07:34:19;;;;;;;0.10;0.10;;;;;;;;;;5119962;27;20265;-42
2023/09/13 07:36:57;;;;;;;0.20;0.20;;;;;;;;;;5124561;27;20520;-42
2023/09/13 07:39:23;;;;;;;0.10;0.10;;;;;;;;;;5121448;27;20070;-44
2023/09/13 07:41:48;;;;;;;0.20;0.20;;;;;;;;;;5123540;27;21004;-42
2023/09/13 07:44:14;;;;;;;0.10;0.10;;;;;;;;;;5124053;27;20107;-42
2023/09/13 07:46:39;;;;;;;0.10;0.10;;;;;;;;;;5120382;27;20493;-42
2023/09/13 07:49:05;;;;;;;0.10;0.10;;;;;;;;;;5122634;27;20055;-43
2023/09/13 07:51:30;;;;;;;0.10;0.10;;;;;;;;;;5132338;27;20061;-44
2023/09/13 07:54:03;;;;;;;0.20;0.20;;;;;;;;;;5123922;27;20047;-42
2023/09/13 07:56:29;;;;;;;0.10;0.10;;;;;;;;;;5119898;27;20070;-42
2023/09/13 07:58:55;;;;;;;0.20;0.20;;;;;;;;;;5120041;27;20196;-43
2023/09/13 08:01:20;;;;;;;0.10;0.10;;;;;;;;;;5110230;27;20254;-42
2023/09/13 08:03:46;;;;;;;0.10;0.10;;;;;;;;;;5109850;27;20478;-43
2023/09/13 08:06:11;;;;;;;0.10;0.10;;;;;;;;;;5116094;27;20085;-43
2023/09/13 08:08:37;;;;;;;0.10;0.10;;;;;;;;;;5110291;27;20067;-42
2023/09/13 08:11:03;;;;;;;0.10;0.10;;;;;;;;;;5112995;27;20074;-42
2023/09/13 08:13:29;;;;;;;0.10;0.10;;;;;;;;;;5118489;27;20066;-43
2023/09/13 08:15:55;;;;;;;0.10;0.10;;;;;;;;;;5122143;27;20483;-44
2023/09/13 08:18:20;;;;;;;0.73;0.20;;;;;;;;;;5121163;27;20131;-45
2023/09/13 08:20:46;;;;;;;0.10;0.10;;;;;;;;;;5098890;27;20470;-43
2023/09/13 08:23:12;;;;;;;0.10;0.10;;;;;;;;;;5116793;27;20471;-43
2023/09/13 08:25:39;;;;;;;0.10;0.10;;;;;;;;;;5110348;27;20043;-43
2023/09/13 08:28:05;;;;;;;0.10;0.10;;;;;;;;;;5111688;27;20134;-43
2023/09/13 08:30:30;;;;;;;0.10;0.10;;;;;;;;;;5110410;27;20043;-43
2023/09/13 08:32:56;;;;;;;0.10;0.10;;;;;;;;;;5106996;27;20478;-43
2023/09/13 08:35:21;;;;;;;0.10;0.10;;;;;;;;;;5114406;27;20043;-48
2023/09/13 08:37:48;;;;;;;0.10;0.10;;;;;;;;;;5115442;27;20402;-42
2023/09/13 08:40:13;;;;;;;0.10;0.10;;;;;;;;;;5111367;27;20648;-42
2023/09/13 08:42:40;;;;;;;0.20;0.20;;;;;;;;;;5117652;27;20047;-42
2023/09/13 08:45:06;;;;;;;0.52;0.52;;;;;;;;;;5119575;27;20330;-44
2023/09/13 08:47:33;;;;;;;0.10;0.10;;;;;;;;;;5120697;27;20262;-43
2023/09/13 08:50:13;;;;;;;0.10;0.10;;;;;;;;;;5121906;27;20051;-43
2023/09/13 08:52:41;;;;;;;0.10;0.10;;;;;;;;;;5121378;27;20145;-43
2023/09/13 08:55:07;;;;;;;0.20;0.20;;;;;;;;;;5119782;27;20083;-42
2023/09/13 08:57:34;;;;;;;0.10;0.10;;;;;;;;;;5123339;27;20161;-42
2023/09/13 08:59:59;;;;;;;0.20;0.20;;;;;;;;;;5116519;27;20058;-42
2023/09/13 09:02:26;;;;;;;0.10;0.10;;;;;;;;;;5122957;27;20134;-43
2023/09/13 09:04:51;;;;;;;0.10;0.10;;;;;;;;;;5119570;27;20147;-44
2023/09/13 09:07:18;;;;;;;0.28;0.28;;;;;;;;;;5121004;27;20043;-42
2023/09/13 09:09:46;;;;;;;0.10;0.10;;;;;;;;;;5117479;27;20043;-43
2023/09/13 09:12:14;;;;;;;0.10;0.10;;;;;;;;;;5116221;27;20051;-43
2023/09/13 09:14:42;;;;;;;0.10;0.10;;;;;;;;;;5131234;27;20058;-43
2023/09/13 09:17:08;;;;;;;0.10;0.10;;;;;;;;;;5126026;27;20083;-44
2023/09/13 09:19:34;;;;;;;0.28;0.28;;;;;;;;;;5124027;27;20050;-44
2023/09/13 09:22:00;;;;;;;0.20;0.20;;;;;;;;;;5120333;27;20466;-42
2023/09/13 09:24:26;;;;;;;0.10;0.10;;;;;;;;;;5121351;27;20043;-42
2023/09/13 09:26:54;;;;;;;0.10;0.10;;;;;;;;;;5125286;27;20401;-42
2023/09/13 09:29:20;;;;;;;0.10;0.10;;;;;;;;;;5117707;27;20183;-43
2023/09/13 09:31:45;;;;;;;0.10;0.10;;;;;;;;;;5120913;27;20062;-43
2023/09/13 09:34:12;;;;;;;0.10;0.10;;;;;;;;;;5112793;27;20105;-43
2023/09/13 09:36:38;;;;;;;0.13;0.13;;;;;;;;;;5117844;27;20066;-43
2023/09/13 09:39:05;;;;;;;0.10;0.10;;;;;;;;;;5112126;27;20111;-43
2023/09/13 09:41:31;;;;;;;0.20;0.20;;;;;;;;;;5089049;27;20066;-43
2023/09/13 09:43:57;;;;;;;0.10;0.10;;;;;;;;;;5114916;27;20042;-44
2023/09/13 09:46:23;;;;;;;0.10;0.10;;;;;;;;;;5107815;27;20129;-42
2023/09/13 09:48:50;;;;;;;0.10;0.10;;;;;;;;;;5117206;27;20039;-43
2023/09/13 09:51:16;;;;;;;0.10;0.10;;;;;;;;;;5124614;27;20416;-42
2023/09/13 09:53:41;;;;;;;0.10;0.10;;;;;;;;;;5113095;27;20523;-42
2023/09/13 09:56:07;;;;;;;0.10;0.10;;;;;;;;;;5113590;27;20117;-43
2023/09/13 09:58:33;;;;;;;0.10;0.10;;;;;;;;;;5124915;27;20082;-43
2023/09/13 10:01:00;;;;;;;0.10;0.10;;;;;;;;;;5122582;27;20043;-43
2023/09/13 10:03:31;;;;;;;0.00;0.00;;;;;;;;;;5123963;27;20050;-43
2023/09/13 10:06:12;;;;;;;0.10;0.10;;;;;;;;;;5120556;27;21129;-42
2023/09/13 10:08:40;;;;;;;0.10;0.10;;;;;;;;;;5117893;27;20122;-42
2023/09/13 10:11:07;;;;;;;0.10;0.10;;;;;;;;;;5118522;27;20057;-43
2023/09/13 10:13:33;;;;;;;0.17;0.13;;;;;;;;;;5123439;27;20054;-43
2023/09/13 10:16:00;;;;;;;0.10;0.10;;;;;;;;;;5123612;27;20413;-43
2023/09/13 10:18:26;;;;;;;0.20;0.20;;;;;;;;;;5117358;27;20221;-42
2023/09/13 10:20:56;;;;;;;0.10;0.10;;;;;;;;;;5122054;27;20542;-42
2023/09/13 10:23:24;;;;;;;0.10;0.10;;;;;;;;;;5115472;27;20050;-43
2023/09/13 10:25:49;;;;;;;;;;;;;;;;;;5120986;27;20130;-44
2023/09/13 10:28:17;;;;;;;0.10;0.10;;;;;;;;;;5121114;27;19931;-42
2023/09/13 10:30:46;;;;;;;0.10;0.10;;;;;;;;;;5124105;27;20192;-42
2023/09/13 10:33:14;;;;;;;0.10;0.10;;;;;;;;;;5122841;27;20103;-43
2023/09/13 10:35:41;;;;;;;0.10;0.10;;;;;;;;;;5117653;27;20053;-42
2023/09/13 10:38:26;;;;;;;0.10;0.10;;;;;;;;;;5117258;27;20323;-42
2023/09/13 10:40:59;;;;;;;0.20;0.20;;;;;;;;;;5089236;27;20510;-43
2023/09/13 10:43:26;;;;;;;0.10;0.10;;;;;;;;;;5108640;27;20047;-42
2023/09/13 10:45:52;;;;;;;0.10;0.10;;;;;;;;;;5104142;27;20481;-43
2023/09/13 10:48:18;;;;;;;0.10;0.10;;;;;;;;;;5114517;27;20072;-43
2023/09/13 10:50:44;;;;;;;0.10;0.10;;;;;;;;;;5113303;27;20145;-42
2023/09/13 10:53:11;;;;;;;0.13;0.13;;;;;;;;;;5115291;27;20455;-43
2023/09/13 10:55:37;;;;;;;0.10;0.10;;;;;;;;;;5111266;27;20090;-41
2023/09/13 10:58:03;;;;;;;0.10;0.10;;;;;;;;;;5111489;27;20039;-43
2023/09/13 11:00:31;;;;;;;0.10;0.10;;;;;;;;;;5112884;27;20046;-43
2023/09/13 11:02:58;;;;;;;0.10;0.10;;;;;;;;;;5072854;27;20400;-44
2023/09/13 11:05:23;;;;;;;0.10;0.10;;;;;;;;;;5097403;27;20065;-42
2023/09/13 11:07:49;;;;;;;0.10;0.10;;;;;;;;;;5090163;27;20519;-44
2023/09/13 11:10:16;;;;;;;0.10;0.10;;;;;;;;;;5098864;27;20062;-43
2023/09/13 11:12:48;;;;;;;0.10;0.10;;;;;;;;;;5104137;27;20903;-45
2023/09/13 11:15:22;;;;;;;0.10;0.10;;;;;;;;;;5077129;28;20067;-44
2023/09/13 11:17:47;;;;;;;0.10;0.10;;;;;;;;;;5082095;27;20051;-45
2023/09/13 11:20:34;;;;;;;0.10;0.10;;;;;;;;;;5078505;28;20108;-43
2023/09/13 11:23:05;;;;;;;0.20;0.20;;;;;;;;;;5078597;28;20085;-43
2023/09/13 11:25:34;;;;;;;0.10;0.10;;;;;;;;;;5098834;27;20063;-43
2023/09/13 11:28:02;;;;;;;0.10;0.10;;;;;;;;;;5088435;27;20050;-44
2023/09/13 11:30:45;;;;;;;0.10;0.10;;;;;;;;;;5085223;27;20432;-44
2023/09/13 11:33:10;;;;;;;0.10;0.10;;;;;;;;;;5093244;27;20058;-43
2023/09/13 11:35:37;;;;;;;0.20;0.20;;;;;;;;;;5093399;27;20039;-43
2023/09/13 11:38:03;;;;;;;0.10;0.10;;;;;;;;;;5099874;27;20050;-43
2023/09/13 11:40:29;;;;;;;0.10;0.10;;;;;;;;;;5093122;28;20138;-43
2023/09/13 11:42:55;;;;;;;0.10;0.10;;;;;;;;;;5096268;28;20043;-42
2023/09/13 11:45:35;;;;;;;0.10;0.10;;;;;;;;;;5102282;27;20061;-43
2023/09/13 11:48:02;;;;;;;0.10;0.10;;;;;;;;;;5098602;27;20272;-43
2023/09/13 11:50:39;;;;;;;0.10;0.10;;;;;;;;;;5095952;27;20299;-42
2023/09/13 11:53:16;;;;;;;0.10;0.10;;;;;;;;;;5096812;27;20107;-42
2023/09/13 11:55:43;;;;;;;0.43;0.28;;;;;;;;;;5105607;28;20100;-43
2023/09/13 11:58:30;;;;;;;0.10;0.10;;;;;;;;;;5071345;27;20091;-44
2023/09/13 12:01:08;;;;;;;0.10;0.10;;;;;;;;;;5094944;27;20143;-42
2023/09/13 12:03:39;;;;;;;0.10;0.10;;;;;;;;;;5104918;27;20066;-43
2023/09/13 12:06:25;;;;;;;0.10;0.10;;;;;;;;;;5084354;28;20060;-44
2023/09/13 12:08:55;;;;;;;0.98;0.20;;;;;;;;;;5096454;28;20054;-43
2023/09/13 12:11:24;;;;;;;0.10;0.10;;;;;;;;;;5104089;27;20098;-43
2023/09/13 12:13:53;;;;;;;0.17;0.17;;;;;;;;;;5111065;27;20558;-43
2023/09/13 12:16:37;;;;;;;0.10;0.10;;;;;;;;;;5107117;27;20063;-43
2023/09/13 12:19:04;;;;;;;0.10;0.10;;;;;;;;;;5090420;28;20084;-43
2023/09/13 12:21:29;;;;;;;0.10;0.10;;;;;;;;;;5100761;27;20042;-43
2023/09/13 12:23:55;;;;;;;0.10;0.10;;;;;;;;;;5103995;27;20503;-42
2023/09/13 12:26:20;;;;;;;0.10;0.10;;;;;;;;;;5101083;27;20047;-43
2023/09/13 12:28:46;;;;;;;0.10;0.10;;;;;;;;;;5097951;27;20075;-43
2023/09/13 12:31:13;;;;;;;0.10;0.10;;;;;;;;;;5096776;27;20295;-44
2023/09/13 12:33:40;;;;;;;0.10;0.10;;;;;;;;;;5103274;27;20460;-44
2023/09/13 12:36:06;;;;;;;0.10;0.10;;;;;;;;;;5100892;27;20047;-42
2023/09/13 12:38:43;;;;;;;0.10;0.10;;;;;;;;;;5099593;28;20454;-42
2023/09/13 12:41:11;;;;;;;0.30;0.30;;;;;;;;;;5091861;27;20653;-45
2023/09/13 12:43:39;;;;;;;0.20;0.20;;;;;;;;;;5106302;27;20089;-42
2023/09/13 12:46:06;;;;;;;0.10;0.10;;;;;;;;;;5103450;27;20393;-43
2023/09/13 12:48:32;;;;;;;0.10;0.10;;;;;;;;;;5104075;28;20382;-42
2023/09/13 12:50:59;;;;;;;0.20;0.20;;;;;;;;;;5100484;27;20047;-44
2023/09/13 12:53:27;;;;;;;0.10;0.10;;;;;;;;;;5108126;27;20447;-43
2023/09/13 12:55:52;;;;;;;0.10;0.10;;;;;;;;;;5105964;27;20063;-42
2023/09/13 12:58:18;;;;;;;0.10;0.10;;;;;;;;;;5101682;28;20044;-43
2023/09/13 13:00:52;;;;;;;0.10;0.10;;;;;;;;;;5105065;28;20372;-42
2023/09/13 13:03:20;;;;;;;0.10;0.10;;;;;;;;;;5091565;28;20099;-44
2023/09/13 13:05:46;;;;;;;0.10;0.10;;;;;;;;;;5103242;27;20136;-44
2023/09/13 13:08:12;;;;;;;0.17;0.17;;;;;;;;;;5087087;28;20269;-43
2023/09/13 13:10:54;;;;;;;0.10;0.10;;;;;;;;;;5094323;28;20400;-43
2023/09/13 13:13:20;;;;;;;0.15;0.15;;;;;;;;;;5114105;27;20039;-42
2023/09/13 13:15:46;;;;;;;0.10;0.10;;;;;;;;;;5117113;27;20066;-42
2023/09/13 13:18:12;;;;;;;0.10;0.10;;;;;;;;;;5120441;27;20389;-43
2023/09/13 13:20:43;;;;;;;0.10;0.10;;;;;;;;;;5113825;27;20654;-43
2023/09/13 13:23:28;;;;;;;0.10;0.10;;;;;;;;;;5085637;28;20050;-42
2023/09/13 13:25:54;;;;;;;0.10;0.10;;;;;;;;;;5113697;27;20039;-42
2023/09/13 13:28:20;;;;;;;0.10;0.10;;;;;;;;;;5114164;27;20070;-43
2023/09/13 13:30:45;;;;;;;0.10;0.10;;;;;;;;;;5103770;27;20050;-42
2023/09/13 13:33:11;;;;;;;0.10;0.10;;;;;;;;;;5103543;27;20051;-43
2023/09/13 13:35:37;;;;;;;0.10;0.10;;;;;;;;;;5109545;27;20046;-42
2023/09/13 13:38:03;;;;;;;0.10;0.10;;;;;;;;;;5114234;27;20082;-44
2023/09/13 13:40:29;;;;;;;0.10;0.10;;;;;;;;;;5091603;28;20130;-42
2023/09/13 13:42:54;;;;;;;0.10;0.10;;;;;;;;;;5103264;28;20130;-43
2023/09/13 13:45:20;;;;;;;0.10;0.10;;;;;;;;;;5105196;28;20082;-42
2023/09/13 13:47:46;;;;;;;0.10;0.10;;;;;;;;;;5099626;27;20047;-43
2023/09/13 13:50:11;;;;;;;0.10;0.10;;;;;;;;;;5116728;27;20039;-44
2023/09/13 13:52:37;;;;;;;0.10;0.10;;;;;;;;;;5108053;28;20510;-42
2023/09/13 13:55:03;;;;;;;0.10;0.10;;;;;;;;;;5089115;28;20488;-43
2023/09/13 13:57:36;;;;;;;0.10;0.10;;;;;;;;;;5114703;28;20078;-43
2023/09/13 14:00:01;;;;;;;0.10;0.10;;;;;;;;;;5076197;28;20134;-44
2023/09/13 14:02:35;;;;;;;0.10;0.10;;;;;;;;;;5095029;28;20328;-43
2023/09/13 14:05:01;;;;;;;0.10;0.10;;;;;;;;;;5095829;28;20067;-43
2023/09/13 14:07:26;;;;;;;0.10;0.10;;;;;;;;;;5094266;28;20184;-45
2023/09/13 14:09:52;;;;;;;0.10;0.10;;;;;;;;;;5094296;28;20093;-43
2023/09/13 14:12:17;;;;;;;0.10;0.10;;;;;;;;;;5095067;28;20263;-43
2023/09/13 14:14:43;;;;;;;0.10;0.10;;;;;;;;;;5100259;27;20411;-43
2023/09/13 14:17:08;;;;;;;0.10;0.10;;;;;;;;;;5122814;27;20043;-44
2023/09/13 14:19:34;;;;;;;0.10;0.10;;;;;;;;;;5130554;27;20141;-45
2023/09/13 14:22:01;;;;;;;0.10;0.10;;;;;;;;;;5107793;27;20051;-43
2023/09/13 14:24:26;;;;;;;0.10;0.10;;;;;;;;;;5135536;27;20159;-43
2023/09/13 14:26:52;;;;;;;0.10;0.10;;;;;;;;;;5135376;27;20043;-43
2023/09/13 14:29:17;;;;;;;0.10;0.10;;;;;;;;;;5102123;27;20661;-42
2023/09/13 14:31:45;;;;;;;0.10;0.10;;;;;;;;;;5095272;28;20313;-45
2023/09/13 14:34:11;;;;;;;0.10;0.10;;;;;;;;;;5095324;28;20434;-42
2023/09/13 14:36:36;;;;;;;0.10;0.10;;;;;;;;;;5094247;28;20048;-42
2023/09/13 14:39:03;;;;;;;0.10;0.10;;;;;;;;;;5118649;27;20527;-42
2023/09/13 14:41:29;;;;;;;0.10;0.10;;;;;;;;;;5094881;28;20428;-42
2023/09/13 14:43:55;;;;;;;0.10;0.10;;;;;;;;;;5097453;28;20072;-43